Time;durP1;ratioP1;P1;durP2;ratioP2;P2;SDS_P1;SDS_P2;PMS_P1;PMS_P2;Temp;Humidity;BMP_temperature;BMP_pressure;BME280_temperature;BME280_humidity;BME280_pressure;Samples;Min_cycle;Max_cycle;Signal;HPM_P1;HPM_P2
2023/01/06 00:01:07;;;;;;;11.13;10.53;;;;;;;8.78;68.88;93141.56;5092089;28;20272;-78
2023/01/06 00:03:34;;;;;;;12.03;11.33;;;;;;;8.86;68.68;93158.50;5091024;28;20192;-78
2023/01/06 00:06:01;;;;;;;10.93;10.30;;;;;;;8.79;69.31;93158.75;5091951;28;20224;-77
2023/01/06 00:08:26;;;;;;;11.47;10.53;;;;;;;8.85;70.21;93155.13;5092095;28;20213;-78
2023/01/06 00:10:52;;;;;;;10.93;10.33;;;;;;;8.76;71.25;93166.28;5091216;28;20253;-78
2023/01/06 00:13:18;;;;;;;11.23;10.50;;;;;;;8.80;71.44;93181.13;5091836;28;20179;-77
2023/01/06 00:15:43;;;;;;;11.17;10.40;;;;;;;8.83;71.85;93177.22;5092413;28;20236;-77
2023/01/06 00:18:08;;;;;;;11.23;10.50;;;;;;;8.84;73.40;93181.44;5091945;28;20185;-78
2023/01/06 00:20:34;;;;;;;11.60;10.90;;;;;;;8.78;73.31;93195.44;5092197;28;20223;-77
2023/01/06 00:22:59;;;;;;;11.77;10.97;;;;;;;8.72;73.38;93201.66;5090757;28;20302;-77
2023/01/06 00:25:25;;;;;;;10.97;10.27;;;;;;;8.62;74.50;93194.59;5092477;28;20292;-78
2023/01/06 00:27:50;;;;;;;12.00;11.27;;;;;;;8.60;74.31;93188.06;5089531;28;20200;-78
2023/01/06 00:30:16;;;;;;;11.93;11.13;;;;;;;8.49;74.02;93189.81;5091542;28;20225;-78
2023/01/06 00:32:41;;;;;;;12.87;11.80;;;;;;;8.61;75.26;93216.44;5091053;28;20188;-77
2023/01/06 00:35:07;;;;;;;11.67;10.87;;;;;;;8.56;75.43;93213.78;5091088;28;20236;-77
2023/01/06 00:37:32;;;;;;;11.93;11.10;;;;;;;8.43;76.43;93208.25;5091667;28;20192;-77
2023/01/06 00:39:58;;;;;;;12.57;11.57;;;;;;;8.48;76.55;93226.50;5091559;28;20219;-78
2023/01/06 00:42:23;;;;;;;11.83;11.00;;;;;;;8.56;76.80;93213.03;5091017;28;20189;-78
2023/01/06 00:44:49;;;;;;;11.70;10.83;;;;;;;8.45;77.06;93203.59;5090348;28;20277;-78
2023/01/06 00:47:15;;;;;;;11.90;10.80;;;;;;;8.39;77.64;93207.94;5091878;28;20196;-78
2023/01/06 00:49:41;;;;;;;12.27;11.47;;;;;;;8.32;78.23;93207.41;5091214;28;20239;-78
2023/01/06 00:52:06;;;;;;;11.97;11.17;;;;;;;8.30;77.48;93214.66;5091537;28;20192;-78
2023/01/06 00:54:32;;;;;;;12.23;11.33;;;;;;;8.30;77.97;93225.06;5089328;28;20232;-78
2023/01/06 00:56:57;;;;;;;11.87;11.03;;;;;;;8.38;79.60;93222.00;5090986;28;20193;-78
2023/01/06 00:59:24;;;;;;;11.57;10.77;;;;;;;8.36;77.25;93223.28;5090192;28;20320;-79
2023/01/06 01:01:53;;;;;;;10.77;10.17;;;;;;;8.34;77.79;93220.16;5091835;28;20185;-78
2023/01/06 01:04:19;;;;;;;11.87;10.70;;;;;;;8.31;77.69;93218.06;5091211;28;20232;-77
2023/01/06 01:06:46;;;;;;;10.90;10.20;;;;;;;8.31;78.15;93218.06;5090014;28;20197;-78
2023/01/06 01:09:15;;;;;;;11.83;11.13;;;;;;;8.24;77.66;93205.25;5090308;28;20246;-78
2023/01/06 01:14:25;;;;;;;11.40;10.67;;;;;;;8.12;78.51;93207.22;5090054;28;20289;-78
2023/01/06 01:16:50;;;;;;;11.97;11.10;;;;;;;8.09;78.61;93200.69;5087803;28;20181;-79
2023/01/06 01:19:16;;;;;;;11.37;10.73;;;;;;;8.17;78.48;93215.06;5090976;28;20209;-79
2023/01/06 01:21:41;;;;;;;11.97;10.97;;;;;;;8.10;78.54;93199.66;5091384;28;20271;-79
2023/01/06 01:24:07;;;;;;;12.43;11.43;;;;;;;8.15;78.30;93207.47;5089741;28;20236;-79
2023/01/06 01:26:33;;;;;;;12.20;11.30;;;;;;;8.13;78.21;93204.38;5090110;28;20186;-78
2023/01/06 01:28:59;;;;;;;11.90;10.90;;;;;;;8.16;78.56;93203.88;5090017;28;20213;-78
2023/01/06 01:31:24;;;;;;;11.00;10.20;;;;;;;8.07;78.31;93205.38;5089363;28;20231;-79
2023/01/06 01:33:50;;;;;;;11.67;10.83;;;;;;;8.18;77.81;93217.41;5089767;28;20211;-78
2023/01/06 01:36:17;;;;;;;11.40;10.60;;;;;;;8.04;78.31;93195.47;5090439;28;20197;-79
2023/01/06 01:38:43;;;;;;;10.63;10.10;;;;;;;8.39;75.92;93210.56;5090502;28;20262;-77
2023/01/06 01:41:13;;;;;;;11.50;10.80;;;;;;;8.45;75.56;93195.78;5089027;28;20228;-77
2023/01/06 01:43:59;;;;;;;11.20;10.60;;;;;;;8.51;74.14;93198.16;5089767;28;20202;-77
2023/01/06 01:46:32;;;;;;;10.77;10.07;;;;;;;8.43;74.07;93172.59;5089299;28;20659;-78
2023/01/06 01:49:11;;;;;;;11.30;10.50;;;;;;;8.52;73.53;93170.31;5088778;28;20329;-77
2023/01/06 01:51:40;;;;;;;9.90;9.40;;;;;;;8.50;72.54;93180.19;5089329;28;20279;-77
2023/01/06 01:54:11;;;;;;;9.17;8.67;;;;;;;8.57;72.23;93170.34;5088593;28;20224;-79
2023/01/06 01:56:42;;;;;;;9.90;9.30;;;;;;;8.57;71.30;93165.13;5089016;28;20199;-78
2023/01/06 01:59:20;;;;;;;10.27;9.77;;;;;;;8.43;71.82;93130.97;5089402;28;20232;-78
2023/01/06 02:01:47;;;;;;;9.67;9.17;;;;;;;8.63;71.40;93138.88;5090583;28;20284;-77
2023/01/06 02:04:14;;;;;;;9.57;9.07;;;;;;;8.90;69.95;93147.31;5089328;28;20236;-77
2023/01/06 02:06:40;;;;;;;10.33;9.83;;;;;;;9.02;68.35;93142.69;5089874;28;20257;-77
2023/01/06 02:09:16;;;;;;;8.87;8.47;;;;;;;9.14;65.36;93152.88;5105197;28;20276;-78
2023/01/06 02:11:43;;;;;;;8.93;8.63;;;;;;;9.02;63.57;93134.09;5089956;28;20192;-78
2023/01/06 02:14:14;;;;;;;9.10;8.70;;;;;;;9.17;62.83;93168.78;5087209;28;20234;-78
2023/01/06 02:16:45;;;;;;;10.00;9.50;;;;;;;9.07;63.76;93168.78;5088744;28;20205;-78
2023/01/06 02:19:31;;;;;;;9.50;8.87;;;;;;;9.01;64.73;93200.25;5089999;28;20258;-78
2023/01/06 02:22:13;;;;;;;8.87;8.47;;;;;;;9.13;60.61;93209.41;5083999;28;20226;-77
2023/01/06 02:25:03;;;;;;;9.13;8.83;;;;;;;9.08;60.04;93200.78;5104485;28;20259;-78
2023/01/06 02:27:50;;;;;;;8.77;8.27;;;;;;;9.01;59.89;93216.63;5089403;28;20235;-79
2023/01/06 02:30:34;;;;;;;9.00;8.70;;;;;;;8.90;63.13;93214.25;5090159;28;20216;-79
2023/01/06 02:33:26;;;;;;;9.37;8.87;;;;;;;8.73;65.55;93226.66;5090153;28;20177;-77
2023/01/06 02:36:16;;;;;;;9.40;8.90;;;;;;;8.51;67.10;93220.78;5088986;28;20225;-77
2023/01/06 02:38:41;;;;;;;10.40;9.60;;;;;;;8.44;67.27;93209.81;5089300;28;20192;-78
2023/01/06 02:41:26;;;;;;;10.23;9.73;;;;;;;8.33;68.50;93210.78;5088777;28;20272;-79
2023/01/06 02:44:02;;;;;;;9.27;8.87;;;;;;;8.17;69.56;93199.47;5089003;28;20185;-76
2023/01/06 02:46:42;;;;;;;10.17;9.67;;;;;;;8.09;70.10;93200.69;5090303;28;20329;-78
2023/01/06 02:49:17;;;;;;;10.73;9.90;;;;;;;7.96;69.96;93182.91;5087718;28;20248;-77
2023/01/06 02:51:55;;;;;;;10.50;9.87;;;;;;;8.01;70.54;93177.75;5088138;28;20224;-79
2023/01/06 02:54:43;;;;;;;10.23;9.73;;;;;;;8.12;69.96;93181.22;5087887;28;20228;-78
2023/01/06 02:57:25;;;;;;;9.80;9.17;;;;;;;8.00;70.25;93164.97;5089356;28;20213;-78
2023/01/06 03:00:04;;;;;;;10.50;9.93;;;;;;;8.05;70.74;93163.22;5087891;28;20228;-79
2023/01/06 03:02:31;;;;;;;10.17;9.47;;;;;;;8.03;70.41;93169.72;5087099;28;20191;-77
2023/01/06 03:05:00;;;;;;;10.47;9.97;;;;;;;8.01;69.19;93146.56;5091100;28;20231;-78
2023/01/06 03:07:29;;;;;;;9.30;8.80;;;;;;;8.27;69.22;93155.34;5092386;28;20225;-78
2023/01/06 03:09:57;;;;;;;9.27;8.77;;;;;;;8.24;65.09;93136.84;5091783;28;20228;-79
2023/01/06 03:12:32;;;;;;;10.27;9.57;;;;;;;8.34;65.05;93142.13;5091404;28;20170;-78
2023/01/06 03:14:58;;;;;;;9.87;9.43;;;;;;;8.33;66.38;93143.16;5093378;28;20274;-78
2023/01/06 03:17:24;;;;;;;9.77;9.27;;;;;;;8.14;67.86;93124.53;5092855;28;20200;-80
2023/01/06 03:19:50;;;;;;;10.50;9.90;;;;;;;8.01;66.52;93107.56;5093412;28;20251;-79
2023/01/06 03:22:16;;;;;;;9.57;9.07;;;;;;;8.11;67.39;93125.81;5092902;28;20188;-78
2023/01/06 03:24:44;;;;;;;10.07;9.37;;;;;;;8.19;64.00;93135.75;5091774;28;20217;-78
2023/01/06 03:27:09;;;;;;;10.47;9.77;;;;;;;8.12;64.48;93144.81;5106862;28;20187;-79
2023/01/06 03:29:36;;;;;;;9.13;8.73;;;;;;;7.94;69.23;93143.38;5092589;28;20225;-78
2023/01/06 03:32:07;;;;;;;10.53;9.93;;;;;;;7.91;70.95;93162.06;5092520;28;20227;-78
2023/01/06 03:34:51;;;;;;;10.50;9.97;;;;;;;7.73;72.18;93151.28;5123161;27;20229;-77
2023/01/06 03:37:39;;;;;;;10.43;9.83;;;;;;;7.73;71.64;93149.47;5092349;28;20199;-78
2023/01/06 03:40:23;;;;;;;10.43;9.93;;;;;;;7.73;72.43;93178.06;5092116;28;20229;-79
2023/01/06 03:43:12;;;;;;;11.10;10.50;;;;;;;7.76;71.86;93161.97;5092328;28;20187;-77
2023/01/06 03:45:42;;;;;;;10.93;10.30;;;;;;;7.80;70.97;93172.63;5091170;28;20310;-79
2023/01/06 03:48:29;;;;;;;9.23;8.77;;;;;;;7.76;71.54;93187.94;5092247;28;20783;-78
2023/01/06 03:51:19;;;;;;;10.00;9.50;;;;;;;7.70;71.99;93204.53;5091163;28;20291;-77
2023/01/06 03:53:52;;;;;;;10.27;9.77;;;;;;;7.59;72.33;93189.09;5124530;28;20737;-75
2023/01/06 03:56:28;;;;;;;9.60;9.13;;;;;;;7.56;72.54;93202.56;5092186;28;20180;-79
2023/01/06 03:58:57;;;;;;;10.63;10.13;;;;;;;7.58;71.99;93193.47;5093272;28;20200;-77
2023/01/06 04:01:25;;;;;;;9.87;9.27;;;;;;;7.67;71.60;93202.41;5092459;28;20220;-78
2023/01/06 04:03:54;;;;;;;9.80;9.23;;;;;;;7.67;71.60;93199.81;5091750;28;20199;-78
2023/01/06 04:06:20;;;;;;;9.07;8.67;;;;;;;7.41;70.64;93199.81;5092205;28;20196;-79
2023/01/06 04:08:45;;;;;;;9.50;8.80;;;;;;;7.60;70.20;93221.81;5090642;28;20204;-75
2023/01/06 04:12:37;;;;;;;10.87;10.27;;;;;;;7.66;69.71;93226.03;5092298;28;20201;-78
2023/01/06 04:13:56;;;;;;;9.70;9.10;;;;;;;7.59;69.67;93228.84;5090758;28;20185;-77
2023/01/06 04:16:22;;;;;;;10.33;9.83;;;;;;;7.34;70.04;93194.81;5091517;28;20188;-77
2023/01/06 04:18:47;;;;;;;11.40;10.40;;;;;;;7.43;69.75;93234.09;5091844;28;20219;-78
2023/01/06 04:21:13;;;;;;;9.47;9.07;;;;;;;7.63;69.17;93250.69;5091647;28;20191;-77
2023/01/06 04:23:38;;;;;;;9.90;9.50;;;;;;;7.63;70.03;93252.50;5092115;28;20200;-79
2023/01/06 04:26:04;;;;;;;10.20;9.60;;;;;;;7.68;72.42;93232.56;5092480;28;20237;-75
2023/01/06 04:28:29;;;;;;;9.33;8.83;;;;;;;7.90;69.37;93220.31;5091833;28;20244;-75
2023/01/06 04:30:59;;;;;;;10.07;9.67;;;;;;;7.95;69.35;93228.13;5090966;28;20236;-75
2023/01/06 04:33:25;;;;;;;9.90;9.40;;;;;;;7.31;68.63;93166.75;5092058;28;20188;-75
2023/01/06 04:35:50;;;;;;;9.50;9.10;;;;;;;7.58;69.34;93198.69;5090696;28;20248;-75
2023/01/06 04:38:15;;;;;;;9.70;9.10;;;;;;;7.51;70.26;93237.06;5092550;28;20208;-75
2023/01/06 04:40:42;;;;;;;9.73;9.23;;;;;;;7.36;71.08;93207.56;5123796;27;20222;-74
2023/01/06 04:43:12;;;;;;;10.20;9.70;;;;;;;7.56;71.77;93233.75;5091858;28;20216;-75
2023/01/06 04:45:39;;;;;;;10.33;9.83;;;;;;;7.35;70.37;93222.34;5091109;28;20228;-75
2023/01/06 04:48:04;;;;;;;9.57;9.07;;;;;;;7.35;69.24;93211.16;5093607;28;20201;-74
2023/01/06 04:50:30;;;;;;;10.10;9.60;;;;;;;7.43;69.15;93227.13;5092008;28;20220;-75
2023/01/06 04:52:55;;;;;;;8.70;8.07;;;;;;;7.44;69.37;93264.28;5090688;28;20189;-76
2023/01/06 04:55:20;;;;;;;9.23;8.33;;;;;;;7.50;69.96;93269.25;5089255;28;20232;-74
2023/01/06 04:57:46;;;;;;;10.13;9.60;;;;;;;7.45;70.30;93274.41;5090900;28;20193;-75
2023/01/06 05:00:12;;;;;;;9.70;9.20;;;;;;;7.41;69.83;93290.72;5089197;28;20235;-75
2023/01/06 05:02:37;;;;;;;10.13;9.63;;;;;;;7.30;69.83;93276.81;5089971;28;20195;-75
2023/01/06 05:05:03;;;;;;;10.07;9.57;;;;;;;7.48;70.63;93294.72;5090348;28;20300;-77
2023/01/06 05:07:28;;;;;;;10.23;9.57;;;;;;;7.39;70.57;93285.75;5088028;28;20208;-74
2023/01/06 05:09:53;;;;;;;9.80;8.90;;;;;;;7.37;70.91;93287.81;5087180;28;20221;-78
2023/01/06 05:12:18;;;;;;;9.13;8.70;;;;;;;7.36;71.48;93282.88;5088832;28;20244;-72
2023/01/06 05:14:44;;;;;;;9.87;9.40;;;;;;;7.21;73.08;93241.13;5089471;28;20240;-74
2023/01/06 05:17:09;;;;;;;9.60;9.10;;;;;;;7.31;71.53;93275.03;5089039;28;20275;-76
2023/01/06 05:19:34;;;;;;;10.00;9.50;;;;;;;7.40;71.72;93282.16;5089349;28;20246;-73
2023/01/06 05:22:00;;;;;;;9.30;8.90;;;;;;;7.35;72.30;93274.28;5088965;28;20197;-72
2023/01/06 05:24:25;;;;;;;9.10;8.70;;;;;;;7.23;71.93;93267.66;5088048;28;20216;-76
2023/01/06 05:26:51;;;;;;;9.37;8.77;;;;;;;7.34;71.58;93293.50;5087425;28;20990;-76
2023/01/06 05:29:16;;;;;;;9.53;9.03;;;;;;;7.39;69.65;93290.19;5089083;28;20266;-73
2023/01/06 05:31:42;;;;;;;9.50;9.10;;;;;;;7.31;69.30;93293.19;5090060;28;20180;-70
2023/01/06 05:34:09;;;;;;;8.53;8.23;;;;;;;7.45;66.84;93302.19;5087988;28;20243;-73
2023/01/06 05:36:35;;;;;;;10.90;10.40;;;;;;;7.40;68.17;93294.34;5087783;28;20248;-72
2023/01/06 05:39:00;;;;;;;9.83;9.33;;;;;;;7.32;69.17;93284.38;5089372;28;20211;-76
2023/01/06 05:41:25;;;;;;;8.60;8.20;;;;;;;7.45;69.81;93305.59;5088979;28;20199;-77
2023/01/06 05:43:51;;;;;;;9.50;9.10;;;;;;;7.25;67.75;93284.56;5088140;28;20206;-76
2023/01/06 05:46:16;;;;;;;9.53;9.13;;;;;;;7.28;68.52;93302.28;5088986;28;20196;-77
2023/01/06 05:48:41;;;;;;;9.33;8.90;;;;;;;7.19;69.27;93311.47;5089832;28;20221;-77
2023/01/06 05:51:10;;;;;;;9.40;9.00;;;;;;;7.36;66.29;93311.44;5087270;28;20260;-78
2023/01/06 05:53:38;;;;;;;9.70;9.20;;;;;;;7.42;65.67;93310.47;5087613;28;20248;-77
2023/01/06 05:56:06;;;;;;;9.57;9.07;;;;;;;7.25;65.88;93320.94;5087539;28;20224;-77
2023/01/06 05:58:32;;;;;;;9.27;8.83;;;;;;;7.25;67.67;93315.72;5087535;28;20185;-77
2023/01/06 06:01:01;;;;;;;9.80;9.30;;;;;;;7.19;67.36;93316.66;5088012;28;20220;-76
2023/01/06 06:03:27;;;;;;;10.07;9.53;;;;;;;7.17;66.15;93325.75;5090301;28;20172;-76
2023/01/06 06:05:52;;;;;;;9.33;8.93;;;;;;;7.17;66.04;93308.34;5087747;28;20225;-76
2023/01/06 06:08:18;;;;;;;9.27;8.87;;;;;;;7.33;66.07;93333.47;5119851;27;20212;-77
2023/01/06 06:10:43;;;;;;;9.70;9.20;;;;;;;7.24;66.20;93328.94;5088652;28;20334;-77
2023/01/06 06:13:08;;;;;;;9.60;9.10;;;;;;;7.37;64.43;93342.38;5088196;28;20211;-77
2023/01/06 06:15:34;;;;;;;10.23;9.73;;;;;;;7.37;64.18;93324.19;5086935;28;20228;-77
2023/01/06 06:18:01;;;;;;;10.13;9.50;;;;;;;7.42;63.54;93347.63;5086734;28;20256;-76
2023/01/06 06:20:27;;;;;;;10.00;9.40;;;;;;;7.38;63.93;93335.34;5086694;28;20232;-76
2023/01/06 06:22:53;;;;;;;9.17;8.77;;;;;;;7.40;64.30;93343.69;5087019;28;20639;-77
2023/01/06 06:25:19;;;;;;;9.30;9.00;;;;;;;7.29;64.19;93342.78;5087516;28;20232;-77
2023/01/06 06:27:44;;;;;;;9.93;9.43;;;;;;;7.48;63.75;93356.25;5088413;28;20220;-76
2023/01/06 06:30:10;;;;;;;8.67;8.33;;;;;;;7.52;62.95;93346.94;5087389;28;20228;-76
2023/01/06 06:32:35;;;;;;;9.90;9.47;;;;;;;6.96;64.13;93283.16;5087472;28;20184;-75
2023/01/06 06:35:00;;;;;;;9.47;9.07;;;;;;;7.46;64.83;93343.53;5087839;28;20240;-76
2023/01/06 06:37:26;;;;;;;9.63;9.33;;;;;;;7.45;64.70;93341.97;5087374;28;20199;-77
2023/01/06 06:39:51;;;;;;;9.43;8.73;;;;;;;7.40;64.97;93336.69;5086245;28;20228;-76
2023/01/06 06:42:17;;;;;;;9.13;8.60;;;;;;;7.47;64.95;93339.88;5087016;28;20215;-76
2023/01/06 06:44:43;;;;;;;9.37;8.90;;;;;;;7.30;65.57;93315.00;5087853;28;20295;-76
2023/01/06 06:47:08;;;;;;;10.40;9.80;;;;;;;7.39;65.45;93316.91;5086656;28;20246;-76
2023/01/06 06:49:33;;;;;;;9.63;9.23;;;;;;;7.46;64.69;93307.16;5088077;28;20236;-76
2023/01/06 06:51:59;;;;;;;9.93;9.47;;;;;;;7.27;64.80;93279.13;5088047;28;20220;-76
2023/01/06 06:54:24;;;;;;;8.50;8.17;;;;;;;7.59;63.58;93332.78;5086619;28;20229;-76
2023/01/06 06:56:49;;;;;;;9.97;9.47;;;;;;;7.57;64.61;93321.03;5087167;28;20196;-77
2023/01/06 06:59:15;;;;;;;9.37;8.97;;;;;;;7.61;64.56;93337.72;5088665;28;20228;-75
2023/01/06 07:01:40;;;;;;;9.83;9.43;;;;;;;7.68;62.77;93333.91;5088264;28;20243;-76
2023/01/06 07:04:07;;;;;;;9.57;9.17;;;;;;;7.50;65.82;93323.81;5118174;28;20232;-77
2023/01/06 07:06:33;;;;;;;9.87;9.47;;;;;;;7.69;62.79;93348.47;5087984;28;20192;-80
2023/01/06 07:08:59;;;;;;;9.83;9.30;;;;;;;7.61;62.70;93340.31;5087050;28;20219;-73
2023/01/06 07:11:24;;;;;;;8.93;8.57;;;;;;;7.62;61.35;93341.88;5088333;28;20213;-73
2023/01/06 07:13:50;;;;;;;9.90;9.40;;;;;;;7.69;62.11;93351.06;5085606;28;20205;-74
2023/01/06 07:16:15;;;;;;;9.03;8.73;;;;;;;7.59;61.72;93337.19;5088910;28;20191;-75
2023/01/06 07:18:40;;;;;;;10.27;9.67;;;;;;;7.73;61.54;93362.56;5087610;28;20219;-73
2023/01/06 07:21:06;;;;;;;8.83;8.40;;;;;;;7.76;61.13;93369.09;5087625;28;20216;-75
2023/01/06 07:23:32;;;;;;;9.40;8.90;;;;;;;7.69;61.96;93382.25;5086760;28;20751;-72
2023/01/06 07:25:59;;;;;;;9.27;8.87;;;;;;;7.70;63.11;93378.66;5087601;28;20248;-72
2023/01/06 07:28:27;;;;;;;9.67;9.27;;;;;;;7.74;63.97;93368.53;5087525;28;20215;-72
2023/01/06 07:30:52;;;;;;;9.73;9.33;;;;;;;7.75;63.48;93383.13;5084787;28;20221;-72
2023/01/06 07:33:19;;;;;;;9.77;9.37;;;;;;;7.68;63.55;93382.50;5087729;28;20199;-72
2023/01/06 07:35:44;;;;;;;11.23;10.43;;;;;;;7.59;63.36;93371.75;5086347;28;20212;-73
2023/01/06 07:38:10;;;;;;;10.13;9.63;;;;;;;7.69;63.71;93368.47;5085368;28;20471;-73
2023/01/06 07:40:35;;;;;;;9.53;9.13;;;;;;;7.65;64.17;93393.38;5085798;28;20296;-74
2023/01/06 07:43:05;;;;;;;10.33;9.77;;;;;;;7.75;63.56;93402.06;5086619;28;20209;-73
2023/01/06 07:45:30;;;;;;;9.40;8.93;;;;;;;7.71;63.32;93382.81;5087052;28;20227;-71
2023/01/06 07:47:56;;;;;;;9.83;9.33;;;;;;;7.73;62.15;93391.16;5119756;28;20208;-72
2023/01/06 07:50:21;;;;;;;9.40;8.77;;;;;;;7.66;63.55;93403.53;5089041;28;20598;-72
2023/01/06 07:52:47;;;;;;;9.27;8.87;;;;;;;7.85;62.56;93410.00;5090353;28;20189;-72
2023/01/06 07:55:12;;;;;;;9.50;9.00;;;;;;;7.83;61.86;93417.25;5089920;28;20233;-73
2023/01/06 07:57:37;;;;;;;9.60;9.20;;;;;;;7.76;62.69;93405.47;5123705;28;20197;-71
2023/01/06 08:00:03;;;;;;;9.40;8.97;;;;;;;7.75;62.50;93409.09;5089672;28;20232;-72
2023/01/06 08:02:29;;;;;;;9.50;8.90;;;;;;;7.86;62.93;93432.38;5123632;27;20206;-72
2023/01/06 08:04:54;;;;;;;8.87;8.47;;;;;;;7.82;63.57;93425.28;5090550;28;20778;-72
2023/01/06 08:07:19;;;;;;;8.20;7.90;;;;;;;7.87;63.85;93431.34;5089012;28;20177;-73
2023/01/06 08:09:45;;;;;;;8.87;8.50;;;;;;;7.97;63.39;93441.88;5090161;28;20229;-72
2023/01/06 08:12:11;;;;;;;8.63;8.33;;;;;;;7.94;62.99;93437.16;5088339;28;20236;-71
2023/01/06 08:14:36;;;;;;;10.10;9.60;;;;;;;7.95;61.49;93433.50;5090064;28;20232;-72
2023/01/06 08:17:02;;;;;;;9.40;8.90;;;;;;;8.00;61.74;93427.59;5090071;28;20211;-70
2023/01/06 08:19:27;;;;;;;9.60;9.20;;;;;;;8.01;61.89;93442.19;5090356;28;20208;-71
2023/01/06 08:21:53;;;;;;;9.13;8.57;;;;;;;7.97;61.77;93428.88;5090167;28;20256;-70
2023/01/06 08:24:18;;;;;;;9.50;9.00;;;;;;;8.05;61.50;93467.44;5088741;28;20252;-71
2023/01/06 08:26:43;;;;;;;9.10;8.70;;;;;;;8.05;60.83;93464.06;5089664;28;20176;-71
2023/01/06 08:29:09;;;;;;;8.57;8.17;;;;;;;8.05;60.58;93467.44;5089060;28;20300;-71
2023/01/06 08:31:34;;;;;;;9.10;8.70;;;;;;;8.04;58.94;93450.28;5087996;28;20181;-70
2023/01/06 08:34:00;;;;;;;9.57;9.07;;;;;;;8.25;58.91;93460.94;5090741;28;20231;-72
2023/01/06 08:36:26;;;;;;;8.90;8.40;;;;;;;8.18;59.72;93451.50;5088358;28;20188;-72
2023/01/06 08:38:52;;;;;;;8.63;8.33;;;;;;;8.26;60.03;93445.09;5088364;28;20248;-72
2023/01/06 08:41:18;;;;;;;8.50;8.17;;;;;;;8.10;60.96;93454.50;5087079;28;20203;-72
2023/01/06 08:43:44;;;;;;;8.63;8.13;;;;;;;8.30;60.67;93453.97;5088013;28;20193;-72
2023/01/06 08:46:14;;;;;;;9.17;8.77;;;;;;;8.26;60.50;93457.31;5088485;28;20201;-70
2023/01/06 08:48:39;;;;;;;10.37;9.97;;;;;;;8.14;61.56;93433.97;5122106;27;20235;-73
2023/01/06 08:51:16;;;;;;;9.60;9.10;;;;;;;8.25;61.45;93430.50;5089269;28;20247;-70
2023/01/06 08:53:43;;;;;;;8.70;8.40;;;;;;;8.37;60.54;93446.78;5088933;28;20204;-70
2023/01/06 08:56:13;;;;;;;10.17;9.57;;;;;;;8.24;61.83;93433.34;5089455;28;20220;-70
2023/01/06 08:58:39;;;;;;;10.60;9.70;;;;;;;8.24;61.44;93422.94;5085673;28;20207;-70
2023/01/06 09:01:05;;;;;;;9.63;9.03;;;;;;;8.25;61.59;93408.94;5088647;28;20225;-70
2023/01/06 09:03:30;;;;;;;9.37;8.87;;;;;;;8.28;63.08;93419.59;5090104;28;20189;-73
2023/01/06 09:05:56;;;;;;;9.47;9.07;;;;;;;8.10;63.40;93392.09;5088201;28;20319;-72
2023/01/06 09:08:22;;;;;;;10.20;9.50;;;;;;;8.26;61.65;93413.88;5086906;28;20212;-70
2023/01/06 09:10:47;;;;;;;9.40;9.00;;;;;;;8.29;61.75;93399.59;5087082;28;20236;-71
2023/01/06 09:13:13;;;;;;;9.13;8.73;;;;;;;8.40;62.51;93416.88;5089669;28;20192;-71
2023/01/06 09:15:40;;;;;;;8.97;8.57;;;;;;;8.35;61.80;93399.41;5089217;28;20328;-71
2023/01/06 09:18:07;;;;;;;9.53;9.13;;;;;;;8.45;61.47;93389.09;5089406;28;20196;-72
2023/01/06 09:20:33;;;;;;;8.57;8.17;;;;;;;8.43;61.32;93411.19;5089065;28;20228;-74
2023/01/06 09:22:58;;;;;;;9.73;9.00;;;;;;;8.37;61.88;93380.94;5087831;28;20190;-72
2023/01/06 09:25:24;;;;;;;10.70;10.20;;;;;;;8.60;60.72;93394.44;5104636;28;20282;-71
2023/01/06 09:27:49;;;;;;;9.50;9.00;;;;;;;8.52;60.79;93409.72;5087110;28;20208;-72
2023/01/06 09:30:14;;;;;;;9.63;9.03;;;;;;;8.46;61.62;93400.28;5088864;28;20224;-72
2023/01/06 09:32:40;;;;;;;10.03;9.53;;;;;;;8.51;60.38;93390.72;5087966;28;20177;-71
2023/01/06 09:35:06;;;;;;;9.30;8.87;;;;;;;8.43;60.81;93365.16;5087411;28;20228;-72
2023/01/06 09:37:31;;;;;;;10.50;9.80;;;;;;;8.55;60.91;93377.97;5102895;28;20264;-72
2023/01/06 09:39:57;;;;;;;9.70;9.17;;;;;;;8.58;58.88;93388.69;5088716;28;20216;-71
2023/01/06 09:42:49;;;;;;;8.57;8.27;;;;;;;8.63;61.00;93377.53;5088215;28;20186;-72
2023/01/06 09:45:18;;;;;;;9.07;8.47;;;;;;;8.50;62.17;93375.34;5088549;28;20216;-73
2023/01/06 09:47:52;;;;;;;9.57;9.07;;;;;;;8.47;62.04;93355.81;5089194;28;20236;-72
2023/01/06 09:50:29;;;;;;;9.33;9.00;;;;;;;8.59;62.10;93373.88;5088685;28;20232;-72
2023/01/06 09:53:00;;;;;;;8.73;8.43;;;;;;;8.66;60.79;93370.03;5089252;28;21294;-72
2023/01/06 09:55:35;;;;;;;9.53;8.93;;;;;;;8.73;61.50;93364.63;5087751;28;20220;-72
2023/01/06 09:58:08;;;;;;;9.90;9.40;;;;;;;8.79;61.78;93371.44;5087050;28;20192;-72
2023/01/06 10:00:38;;;;;;;8.43;8.03;;;;;;;8.84;58.86;93356.63;5088857;28;20216;-70
2023/01/06 10:03:04;;;;;;;9.03;8.63;;;;;;;8.99;58.42;93348.94;5090349;28;20192;-72
2023/01/06 10:05:41;;;;;;;8.53;8.13;;;;;;;8.88;57.39;93368.13;5086369;28;20220;-72
2023/01/06 10:08:22;;;;;;;9.43;9.03;;;;;;;8.91;59.36;93362.41;5086417;28;20271;-72
2023/01/06 10:11:08;;;;;;;9.30;8.90;;;;;;;8.82;59.20;93358.72;5088939;28;20257;-72
2023/01/06 10:13:55;;;;;;;9.50;9.03;;;;;;;8.82;59.70;93363.13;5087647;28;20193;-72
2023/01/06 10:16:48;;;;;;;8.80;8.40;;;;;;;8.73;59.09;93362.78;5065952;28;20220;-73
2023/01/06 10:20:02;;;;;;;8.90;8.50;;;;;;;8.83;58.54;93388.91;5065911;28;20298;-72
2023/01/06 10:22:42;;;;;;;9.03;8.70;;;;;;;8.95;58.80;93376.50;5057058;28;20193;-72
2023/01/06 10:25:33;;;;;;;9.23;8.83;;;;;;;8.85;58.22;93353.00;5067292;28;20288;-72
2023/01/06 10:27:58;;;;;;;8.73;8.33;;;;;;;8.91;59.78;93366.84;5066436;28;20209;-77
2023/01/06 10:30:36;;;;;;;9.50;9.10;;;;;;;9.01;58.41;93351.28;5065994;28;20293;-76
2023/01/06 10:33:02;;;;;;;9.93;9.53;;;;;;;8.98;57.57;93367.41;5065829;28;20189;-75
2023/01/06 10:35:28;;;;;;;10.70;10.10;;;;;;;9.04;56.49;93353.41;5066939;28;20263;-75
2023/01/06 10:37:56;;;;;;;8.77;8.47;;;;;;;9.01;54.67;93351.28;5066391;28;20254;-75
2023/01/06 10:40:25;;;;;;;10.07;9.57;;;;;;;9.00;56.92;93324.47;5066486;28;20261;-72
2023/01/06 10:42:59;;;;;;;9.53;9.03;;;;;;;9.17;57.21;93352.94;5065723;28;20177;-75
2023/01/06 10:45:39;;;;;;;9.77;9.27;;;;;;;9.11;56.55;93341.72;5065470;28;20240;-74
2023/01/06 10:48:10;;;;;;;9.80;9.40;;;;;;;9.06;57.88;93322.66;5066378;28;20235;-75
2023/01/06 10:50:36;;;;;;;9.57;9.17;;;;;;;9.03;57.51;93323.16;5065909;28;20304;-74
2023/01/06 10:53:02;;;;;;;9.70;9.30;;;;;;;8.67;58.24;93284.94;5066440;28;20235;-74
2023/01/06 10:55:44;;;;;;;9.83;9.33;;;;;;;8.86;58.46;93296.50;5065687;28;20248;-75
2023/01/06 10:58:29;;;;;;;10.33;9.83;;;;;;;9.00;59.09;93319.25;5065775;28;20257;-74
2023/01/06 11:01:00;;;;;;;9.37;8.90;;;;;;;9.07;57.71;93304.19;5065786;28;20233;-74
2023/01/06 11:03:26;;;;;;;9.60;9.10;;;;;;;9.10;58.84;93300.28;5066248;28;20193;-76
2023/01/06 11:06:00;;;;;;;9.53;9.17;;;;;;;8.89;59.60;93288.19;5066550;28;20391;-71
2023/01/06 11:08:27;;;;;;;8.43;8.13;;;;;;;8.91;57.94;93293.94;5064763;28;20300;-72
2023/01/06 11:10:53;;;;;;;9.07;8.60;;;;;;;9.11;58.32;93288.84;5065396;28;20232;-72
2023/01/06 11:13:27;;;;;;;8.77;8.27;;;;;;;9.12;57.31;93285.22;5067146;28;20200;-72
2023/01/06 11:15:54;;;;;;;9.13;8.73;;;;;;;9.12;57.19;93303.44;5065306;28;20263;-74
2023/01/06 11:18:31;;;;;;;10.77;10.17;;;;;;;8.96;58.51;93327.81;5066521;28;20593;-73
2023/01/06 11:21:03;;;;;;;9.70;9.03;;;;;;;9.00;58.77;93314.03;5065049;28;20241;-73
2023/01/06 11:23:29;;;;;;;9.43;8.83;;;;;;;9.03;58.78;93312.75;5065292;28;20178;-75
2023/01/06 11:26:00;;;;;;;10.37;9.77;;;;;;;8.93;59.17;93302.28;5070429;28;20217;-75
2023/01/06 11:28:26;;;;;;;10.53;9.83;;;;;;;8.97;59.05;93295.53;5070829;28;20205;-74
2023/01/06 11:30:53;;;;;;;10.20;9.60;;;;;;;8.82;59.01;93303.25;5067441;28;20244;-76
2023/01/06 11:33:22;;;;;;;9.47;9.07;;;;;;;8.95;59.82;93300.22;5069454;28;20189;-76
2023/01/06 11:35:49;;;;;;;9.03;8.63;;;;;;;8.71;59.91;93262.56;5069201;28;20233;-75
2023/01/06 11:38:17;;;;;;;9.93;9.43;;;;;;;8.92;59.36;93313.75;5071113;28;20192;-76
2023/01/06 11:40:44;;;;;;;9.70;9.30;;;;;;;8.98;59.13;93315.34;5070327;28;20273;-74
2023/01/06 11:43:44;;;;;;;9.70;9.30;;;;;;;9.03;58.28;93312.75;5094893;28;20200;-74
2023/01/06 11:46:12;;;;;;;9.17;8.80;;;;;;;8.86;56.76;93302.50;5049917;28;20228;-74
2023/01/06 11:49:01;;;;;;;9.43;9.03;;;;;;;8.86;58.25;93291.28;5072059;28;20251;-74